Time;durP1;ratioP1;P1;durP2;ratioP2;P2;SDS_P1;SDS_P2;PMS_P1;PMS_P2;Temp;Humidity;BMP_temperature;BMP_pressure;BME280_temperature;BME280_humidity;BME280_pressure;Samples;Min_cycle;Max_cycle;Signal;HPM_P1;HPM_P2
2020/12/17 00:00:16;;;;;;;99.25;36.20;;;7.10;99.90;;;;;;4970087;28;20153;-62
2020/12/17 00:02:42;;;;;;;102.97;34.10;;;7.10;99.90;;;;;;4968344;28;20097;-62
2020/12/17 00:05:08;;;;;;;103.60;36.80;;;7.10;99.90;;;;;;4968849;28;20035;-62
2020/12/17 00:07:35;;;;;;;121.32;39.88;;;7.20;99.90;;;;;;4968562;28;20525;-62
2020/12/17 00:10:01;;;;;;;106.90;37.67;;;7.10;99.90;;;;;;4967701;28;20181;-62
2020/12/17 00:12:27;;;;;;;109.50;36.65;;;7.10;99.90;;;;;;4968870;28;20039;-62
2020/12/17 00:14:53;;;;;;;121.38;37.63;;;7.20;99.90;;;;;;4965554;28;20158;-62
2020/12/17 00:17:18;;;;;;;106.68;34.75;;;7.20;99.90;;;;;;4970379;28;20161;-62
2020/12/17 00:19:44;;;;;;;106.53;37.22;;;7.20;99.90;;;;;;4968135;28;20041;-62
2020/12/17 00:22:10;;;;;;;111.45;37.05;;;7.20;99.90;;;;;;4969395;28;20141;-62
2020/12/17 00:24:36;;;;;;;102.80;35.22;;;7.20;99.90;;;;;;4966172;28;20444;-62
2020/12/17 00:27:02;;;;;;;115.93;39.80;;;7.20;99.90;;;;;;4970105;28;20607;-62
2020/12/17 00:29:27;;;;;;;112.65;37.58;;;7.20;99.90;;;;;;4965111;28;20078;-62
2020/12/17 00:31:53;;;;;;;112.68;38.63;;;7.30;99.90;;;;;;4969272;28;20541;-62
2020/12/17 00:34:20;;;;;;;111.63;39.17;;;7.20;99.90;;;;;;4967435;28;20045;-62
2020/12/17 00:36:45;;;;;;;107.95;37.05;;;7.30;99.90;;;;;;4968185;28;20387;-61
2020/12/17 00:39:11;;;;;;;116.63;39.95;;;7.20;99.90;;;;;;4967717;28;20092;-62
2020/12/17 00:41:37;;;;;;;111.70;37.33;;;7.30;99.90;;;;;;4968177;28;20526;-62
2020/12/17 00:44:03;;;;;;;104.30;38.25;;;7.30;99.90;;;;;;4968221;28;20137;-62
2020/12/17 00:46:29;;;;;;;115.95;39.05;;;7.30;99.90;;;;;;4968487;28;20039;-62
2020/12/17 00:48:55;;;;;;;114.28;38.33;;;7.30;99.90;;;;;;4966984;28;20144;-62
2020/12/17 00:51:21;;;;;;;104.22;36.33;;;7.40;99.90;;;;;;4967825;28;20026;-62
2020/12/17 00:53:47;;;;;;;108.43;36.35;;;7.40;99.90;;;;;;4966298;28;20034;-62
2020/12/17 00:56:12;;;;;;;106.10;37.85;;;7.40;99.90;;;;;;4968357;28;20479;-62
2020/12/17 00:58:38;;;;;;;110.75;38.35;;;7.40;99.90;;;;;;4967603;28;20034;-62
2020/12/17 01:01:08;;;;;;;104.95;36.42;;;7.40;99.90;;;;;;4961181;28;20034;-62
2020/12/17 01:03:35;;;;;;;99.90;35.65;;;7.50;99.90;;;;;;4967946;28;20031;-62
2020/12/17 01:06:01;;;;;;;104.03;36.00;;;7.40;99.90;;;;;;4969494;28;20038;-62
2020/12/17 01:08:28;;;;;;;96.00;37.00;;;7.50;99.90;;;;;;4968448;28;20483;-62
2020/12/17 01:10:54;;;;;;;88.97;36.03;;;7.50;99.90;;;;;;4970690;28;20042;-62
2020/12/17 01:13:20;;;;;;;98.07;35.33;;;7.50;99.90;;;;;;4964851;28;20034;-62
2020/12/17 01:15:46;;;;;;;96.15;35.20;;;7.50;99.90;;;;;;4969889;28;20558;-62
2020/12/17 01:18:13;;;;;;;90.60;37.95;;;7.60;99.90;;;;;;4969409;28;20092;-62
2020/12/17 01:20:38;;;;;;;94.70;36.33;;;7.60;99.90;;;;;;4967700;28;20037;-62
2020/12/17 01:23:04;;;;;;;93.88;34.50;;;7.60;99.90;;;;;;4967370;28;20023;-62
2020/12/17 01:25:30;;;;;;;102.38;38.20;;;7.60;99.90;;;;;;4970828;28;20093;-62
2020/12/17 01:27:56;;;;;;;89.45;35.15;;;7.60;99.90;;;;;;4969877;28;20042;-62
2020/12/17 01:30:22;;;;;;;94.55;34.28;;;7.60;99.90;;;;;;4969127;28;20042;-62
2020/12/17 01:32:47;;;;;;;94.60;34.97;;;7.60;99.90;;;;;;4968114;28;20030;-62
2020/12/17 01:35:13;;;;;;;94.03;35.60;;;7.60;99.90;;;;;;4968694;28;20042;-62
2020/12/17 01:37:39;;;;;;;105.93;37.75;;;7.60;99.90;;;;;;4969468;28;20054;-62
2020/12/17 01:40:05;;;;;;;108.97;39.50;;;7.60;99.90;;;;;;4967776;28;20488;-62
2020/12/17 01:42:31;;;;;;;98.18;35.88;;;7.60;99.90;;;;;;4968842;28;20033;-62
2020/12/17 01:44:56;;;;;;;96.32;36.53;;;7.60;99.90;;;;;;4966265;28;20038;-62
2020/12/17 01:47:30;;;;;;;102.28;39.35;;;7.60;99.90;;;;;;4966132;28;20118;-62
2020/12/17 01:49:56;;;;;;;88.10;33.50;;;7.60;99.90;;;;;;4967451;28;20026;-62
2020/12/17 01:52:22;;;;;;;102.65;38.80;;;7.60;99.90;;;;;;4966757;28;20031;-62
2020/12/17 01:54:54;;;;;;;92.55;37.33;;;7.60;99.90;;;;;;4964871;28;20529;-62
2020/12/17 01:57:21;;;;;;;99.93;38.47;;;7.70;99.90;;;;;;4968026;28;20059;-62
2020/12/17 01:59:49;;;;;;;93.32;39.35;;;7.70;99.90;;;;;;4965844;28;20404;-62
2020/12/17 02:02:19;;;;;;;101.75;40.08;;;7.70;99.90;;;;;;4998646;28;20042;-62
2020/12/17 02:04:46;;;;;;;95.63;36.95;;;7.70;99.90;;;;;;4963880;28;20065;-62
2020/12/17 02:07:12;;;;;;;95.10;36.65;;;7.80;99.90;;;;;;4965935;28;20046;-62
2020/12/17 02:09:39;;;;;;;98.22;37.85;;;7.80;99.90;;;;;;4967435;28;20085;-62
2020/12/17 02:12:04;;;;;;;97.05;39.08;;;7.70;99.90;;;;;;4966160;28;20101;-62
2020/12/17 02:14:30;;;;;;;92.93;38.00;;;7.70;99.90;;;;;;4964540;28;20061;-62
2020/12/17 02:16:56;;;;;;;109.55;40.95;;;7.70;99.90;;;;;;4966484;28;20516;-62
2020/12/17 02:19:22;;;;;;;88.50;35.33;;;7.80;99.90;;;;;;4966877;28;20042;-62
2020/12/17 02:21:49;;;;;;;100.55;37.25;;;7.80;99.90;;;;;;4965871;28;20456;-62
2020/12/17 02:24:24;;;;;;;94.28;37.53;;;7.80;99.90;;;;;;4963476;28;20402;-62
2020/12/17 02:26:51;;;;;;;89.10;36.33;;;7.80;99.90;;;;;;4965429;28;20034;-62
2020/12/17 02:29:17;;;;;;;91.43;36.80;;;7.80;99.90;;;;;;4966715;28;20536;-62
2020/12/17 02:31:43;;;;;;;89.55;34.65;;;7.80;99.90;;;;;;4965994;28;20031;-62
2020/12/17 02:34:10;;;;;;;92.40;36.20;;;7.90;99.90;;;;;;4964675;28;20109;-62
2020/12/17 02:36:36;;;;;;;94.63;38.10;;;7.90;99.90;;;;;;4964312;28;20034;-62
2020/12/17 02:39:03;;;;;;;85.00;36.00;;;7.80;99.90;;;;;;4964760;28;20055;-62
2020/12/17 02:41:29;;;;;;;92.82;38.35;;;7.80;99.90;;;;;;4966428;28;20038;-62
2020/12/17 02:43:54;;;;;;;96.78;40.33;;;7.90;99.90;;;;;;4965494;28;20464;-62
2020/12/17 02:46:21;;;;;;;93.25;37.63;;;7.90;99.90;;;;;;4965077;28;20444;-62
2020/12/17 02:48:53;;;;;;;91.57;35.67;;;7.90;99.90;;;;;;4967100;28;20495;-61
2020/12/17 02:51:20;;;;;;;83.40;35.05;;;7.90;99.90;;;;;;4966184;28;20448;-62
2020/12/17 02:53:46;;;;;;;88.10;36.05;;;7.90;99.90;;;;;;4965817;28;20038;-62
2020/12/17 02:56:13;;;;;;;80.72;35.53;;;7.90;99.90;;;;;;4965648;28;20176;-62
2020/12/17 02:58:40;;;;;;;89.97;36.83;;;7.90;99.90;;;;;;4995058;28;20101;-62
2020/12/17 03:01:06;;;;;;;82.25;34.58;;;7.90;99.90;;;;;;4962913;28;20569;-62
2020/12/17 03:03:32;;;;;;;91.90;36.72;;;8.00;99.90;;;;;;4964747;28;20050;-62
2020/12/17 03:05:58;;;;;;;84.93;35.30;;;7.90;99.90;;;;;;4966168;28;20490;-62
2020/12/17 03:08:26;;;;;;;84.35;37.33;;;7.90;99.90;;;;;;4965579;28;20030;-62
2020/12/17 03:10:53;;;;;;;90.63;39.60;;;8.00;99.90;;;;;;4967137;28;20035;-62
2020/12/17 03:13:20;;;;;;;90.35;38.55;;;8.00;99.90;;;;;;4965041;28;20518;-62
2020/12/17 03:15:45;;;;;;;81.13;36.47;;;8.00;99.90;;;;;;4966701;28;20038;-62
2020/12/17 03:18:11;;;;;;;88.90;38.42;;;8.00;99.90;;;;;;4963697;28;20031;-62
2020/12/17 03:20:37;;;;;;;90.93;39.70;;;8.00;99.90;;;;;;4967134;28;20034;-62
2020/12/17 03:23:03;;;;;;;85.55;38.80;;;8.00;99.90;;;;;;4964116;28;20333;-62
2020/12/17 03:25:29;;;;;;;83.82;36.78;;;8.10;99.90;;;;;;4964075;28;20391;-62
2020/12/17 03:27:54;;;;;;;78.40;38.47;;;8.00;99.90;;;;;;4964913;28;20126;-62
2020/12/17 03:30:21;;;;;;;76.25;35.90;;;8.00;99.90;;;;;;4962736;28;20429;-62
2020/12/17 03:32:46;;;;;;;89.32;38.75;;;8.10;99.90;;;;;;4967338;28;20085;-62
2020/12/17 03:35:12;;;;;;;83.68;38.38;;;8.10;99.90;;;;;;4965443;28;20101;-62
2020/12/17 03:37:38;;;;;;;85.93;38.75;;;8.10;99.90;;;;;;4965927;28;20055;-62
2020/12/17 03:40:04;;;;;;;84.65;37.90;;;8.10;99.90;;;;;;4961642;28;20120;-62
2020/12/17 03:42:30;;;;;;;80.43;38.60;;;8.10;99.90;;;;;;4966160;28;20440;-62
2020/12/17 03:44:56;;;;;;;87.88;39.90;;;8.10;99.90;;;;;;4967728;28;20082;-62
2020/12/17 03:47:22;;;;;;;84.28;36.63;;;8.10;99.90;;;;;;4968819;28;20038;-62
2020/12/17 03:49:48;;;;;;;82.43;37.55;;;8.10;99.90;;;;;;4967687;28;20023;-62
2020/12/17 03:52:13;;;;;;;78.07;37.40;;;8.10;99.90;;;;;;4968137;28;20597;-62
2020/12/17 03:54:39;;;;;;;84.15;41.90;;;8.10;99.90;;;;;;4969840;28;20033;-62
2020/12/17 03:57:05;;;;;;;77.72;37.67;;;8.10;99.90;;;;;;4971301;28;20490;-62
2020/12/17 03:59:31;;;;;;;81.97;38.10;;;8.20;99.90;;;;;;4968812;28;20553;-62
2020/12/17 04:01:56;;;;;;;82.07;39.72;;;8.20;99.90;;;;;;4968786;28;20147;-62
2020/12/17 04:04:22;;;;;;;85.90;38.83;;;8.10;99.90;;;;;;4966082;28;20027;-62
2020/12/17 04:06:48;;;;;;;80.78;39.90;;;8.20;99.90;;;;;;4966860;28;20129;-62
2020/12/17 04:09:14;;;;;;;76.75;36.63;;;8.20;99.90;;;;;;4969094;28;20051;-62
2020/12/17 04:11:40;;;;;;;76.57;38.97;;;8.20;99.90;;;;;;4970502;28;20073;-62
2020/12/17 04:14:05;;;;;;;80.93;37.47;;;8.20;99.90;;;;;;4965763;28;20565;-62
2020/12/17 04:16:31;;;;;;;83.55;39.33;;;8.20;99.90;;;;;;4969634;28;20078;-62
2020/12/17 04:18:57;;;;;;;78.28;37.05;;;8.20;99.90;;;;;;4970026;28;20249;-62
2020/12/17 04:21:23;;;;;;;79.43;39.20;;;8.20;99.90;;;;;;4967114;28;20035;-62
2020/12/17 04:23:48;;;;;;;85.75;42.13;;;8.20;99.90;;;;;;4965928;28;20038;-62
2020/12/17 04:26:15;;;;;;;77.68;41.22;;;8.20;99.90;;;;;;4968157;28;20034;-62
2020/12/17 04:28:41;;;;;;;80.07;39.78;;;8.20;99.90;;;;;;4967899;28;20035;-62
2020/12/17 04:31:07;;;;;;;82.15;39.08;;;8.20;99.90;;;;;;4969712;28;20039;-62
2020/12/17 04:33:33;;;;;;;79.43;38.53;;;8.20;99.90;;;;;;4965593;28;20046;-62
2020/12/17 04:35:59;;;;;;;73.30;37.38;;;8.20;99.90;;;;;;4969069;28;20057;-62
2020/12/17 04:38:25;;;;;;;80.78;39.20;;;8.30;99.90;;;;;;4963045;28;20069;-62
2020/12/17 04:40:51;;;;;;;72.45;36.83;;;8.30;99.90;;;;;;4967891;28;20137;-62
2020/12/17 04:43:17;;;;;;;73.80;37.05;;;8.30;99.90;;;;;;4962832;28;20694;-62
2020/12/17 04:45:43;;;;;;;77.25;37.33;;;8.30;99.90;;;;;;4966009;28;20471;-62
2020/12/17 04:48:14;;;;;;;73.90;36.55;;;8.30;99.90;;;;;;4968524;28;20560;-62
2020/12/17 04:50:41;;;;;;;81.18;38.45;;;8.30;99.90;;;;;;4965426;28;20093;-62
2020/12/17 04:53:12;;;;;;;70.47;37.42;;;8.30;99.90;;;;;;4965623;28;20499;-62
2020/12/17 04:55:41;;;;;;;79.80;39.70;;;8.40;99.90;;;;;;4965862;28;20047;-62
2020/12/17 04:58:09;;;;;;;72.55;37.20;;;8.40;99.90;;;;;;4966235;28;20595;-62
2020/12/17 05:00:40;;;;;;;69.63;39.63;;;8.40;99.90;;;;;;4963740;28;20061;-62
2020/12/17 05:03:12;;;;;;;72.78;35.80;;;8.40;99.90;;;;;;4961328;28;20076;-62
2020/12/17 05:05:41;;;;;;;71.45;37.65;;;8.40;99.90;;;;;;4962806;28;20402;-62
2020/12/17 05:08:07;;;;;;;75.43;38.42;;;8.40;99.90;;;;;;4962638;28;20022;-62
2020/12/17 05:10:33;;;;;;;68.78;37.97;;;8.40;99.90;;;;;;4958885;28;20039;-61
2020/12/17 05:12:59;;;;;;;68.15;37.75;;;8.40;99.90;;;;;;4956401;28;20516;-69
2020/12/17 05:15:28;;;;;;;69.10;37.08;;;8.40;99.90;;;;;;4991823;28;20039;-70
2020/12/17 05:17:54;;;;;;;73.20;38.45;;;8.40;99.90;;;;;;4963506;28;20130;-69
2020/12/17 05:20:19;;;;;;;76.25;39.88;;;8.40;99.90;;;;;;4959515;28;20030;-69
2020/12/17 05:22:46;;;;;;;77.00;40.20;;;8.40;99.90;;;;;;4957481;28;20023;-69
2020/12/17 05:25:14;;;;;;;72.00;38.30;;;8.40;99.90;;;;;;4961554;28;20065;-69
2020/12/17 05:27:41;;;;;;;66.22;37.22;;;8.40;99.90;;;;;;4962229;28;20117;-69
2020/12/17 05:30:07;;;;;;;65.82;35.80;;;8.40;99.90;;;;;;4962188;28;20035;-69
2020/12/17 05:32:33;;;;;;;63.70;34.75;;;8.40;99.90;;;;;;4965626;28;20023;-69
2020/12/17 05:35:02;;;;;;;74.45;35.95;;;8.40;99.90;;;;;;4960742;28;20049;-69
2020/12/17 05:37:31;;;;;;;70.22;35.88;;;8.50;99.90;;;;;;4961234;28;20387;-69
2020/12/17 05:40:03;;;;;;;68.13;35.63;;;8.40;99.90;;;;;;4963866;28;20031;-69
2020/12/17 05:42:29;;;;;;;66.35;34.17;;;8.50;99.90;;;;;;4962875;28;20030;-69
2020/12/17 05:44:55;;;;;;;66.55;37.33;;;8.50;99.90;;;;;;4962970;28;20431;-69
2020/12/17 05:47:21;;;;;;;66.00;34.58;;;8.50;99.90;;;;;;4958550;28;20027;-69
2020/12/17 05:49:47;;;;;;;67.75;36.28;;;8.50;99.90;;;;;;4954045;28;20802;-69
2020/12/17 05:52:21;;;;;;;64.53;34.92;;;8.50;99.90;;;;;;4965520;28;20475;-69
2020/12/17 05:54:53;;;;;;;64.53;35.47;;;8.50;99.90;;;;;;4960043;28;20031;-69
2020/12/17 05:57:19;;;;;;;59.60;32.85;;;8.50;99.90;;;;;;4963762;28;20451;-69
2020/12/17 05:59:59;;;;;;;65.03;36.17;;;8.40;99.90;;;;;;4960450;28;20055;-69
2020/12/17 06:02:25;;;;;;;;;;;8.40;99.90;;;;;;4966448;28;20144;-69
2020/12/17 06:05:12;;;;;;;62.92;32.70;;;8.40;99.90;;;;;;4961245;28;20336;-70
2020/12/17 06:07:44;;;;;;;58.25;30.92;;;8.50;99.90;;;;;;4966681;28;20018;-69
2020/12/17 06:10:15;;;;;;;59.22;32.78;;;8.50;99.90;;;;;;4966226;28;20034;-69
2020/12/17 06:12:43;;;;;;;57.47;32.45;;;8.50;99.90;;;;;;4963980;28;20034;-69
2020/12/17 06:15:10;;;;;;;62.40;34.90;;;8.50;99.90;;;;;;4964920;28;20050;-69
2020/12/17 06:17:38;;;;;;;58.55;33.50;;;8.40;99.90;;;;;;4967601;28;20357;-69
2020/12/17 06:20:05;;;;;;;59.33;34.05;;;8.50;99.90;;;;;;4967859;28;20109;-69
2020/12/17 06:22:32;;;;;;;62.60;35.35;;;8.40;99.90;;;;;;4968868;28;20038;-69
2020/12/17 06:24:59;;;;;;;65.40;37.35;;;8.40;99.90;;;;;;4965843;28;20046;-69
2020/12/17 06:27:31;;;;;;;59.10;33.70;;;8.50;99.90;;;;;;4967398;28;20034;-69
2020/12/17 06:30:08;;;;;;;56.65;32.55;;;8.40;99.90;;;;;;4968581;28;20035;-70
2020/12/17 06:32:36;;;;;;;63.22;34.85;;;8.40;99.90;;;;;;4968241;28;20125;-69
2020/12/17 06:35:08;;;;;;;57.50;34.38;;;8.40;99.90;;;;;;4966208;28;20054;-69
2020/12/17 06:37:37;;;;;;;61.00;35.17;;;8.40;99.90;;;;;;4968301;28;20034;-69
2020/12/17 06:40:04;;;;;;;61.38;33.97;;;8.40;99.90;;;;;;4967948;28;20042;-69
2020/12/17 06:42:39;;;;;;;67.80;33.97;;;8.40;99.90;;;;;;4967571;28;20493;-69
2020/12/17 06:45:24;;;;;;;60.45;33.53;;;8.40;99.90;;;;;;4967460;28;20026;-69
2020/12/17 06:47:49;;;;;;;57.03;32.00;;;8.40;99.90;;;;;;4968216;28;20482;-70
2020/12/17 06:50:28;;;;;;;63.50;36.28;;;8.40;99.90;;;;;;4966903;28;20395;-70
2020/12/17 06:53:12;;;;;;;59.25;34.63;;;8.40;99.90;;;;;;4966668;28;20027;-69
2020/12/17 06:55:46;;;;;;;60.80;34.00;;;8.50;99.90;;;;;;4963935;28;20038;-69
2020/12/17 06:58:23;;;;;;;58.35;31.92;;;8.40;99.90;;;;;;4966820;28;20122;-69
2020/12/17 07:00:54;;;;;;;60.13;33.22;;;8.40;99.90;;;;;;4967061;28;20109;-70
2020/12/17 07:03:43;;;;;;;60.65;34.83;;;8.40;99.90;;;;;;4967123;28;20034;-70
2020/12/17 07:06:25;;;;;;;55.22;30.95;;;8.40;99.90;;;;;;4967629;28;20473;-69
2020/12/17 07:08:57;;;;;;;52.58;31.17;;;8.40;99.90;;;;;;4965797;28;20042;-70
2020/12/17 07:11:45;;;;;;;53.05;30.85;;;8.40;99.90;;;;;;4965392;28;20027;-70
2020/12/17 07:14:23;;;;;;;50.45;30.13;;;8.40;99.90;;;;;;4967445;28;20117;-69
2020/12/17 07:16:51;;;;;;;56.63;30.67;;;8.40;99.90;;;;;;4968444;28;20038;-70
2020/12/17 07:19:29;;;;;;;53.53;31.00;;;8.40;99.90;;;;;;4968079;28;20039;-70
2020/12/17 07:22:00;;;;;;;51.67;28.77;;;8.40;99.90;;;;;;4971007;28;20518;-70
2020/12/17 07:24:29;;;;;;;50.33;30.25;;;8.40;99.90;;;;;;4969918;28;20031;-70
2020/12/17 07:27:00;;;;;;;50.97;28.17;;;8.40;99.90;;;;;;4971005;28;20053;-70
2020/12/17 07:29:31;;;;;;;48.88;27.88;;;8.40;99.90;;;;;;4970450;28;20034;-70
2020/12/17 07:32:16;;;;;;;49.95;28.33;;;8.40;99.90;;;;;;4970770;28;20088;-70
2020/12/17 07:34:43;;;;;;;46.60;24.92;;;8.40;99.90;;;;;;4970334;28;20054;-70
2020/12/17 07:37:08;;;;;;;42.92;24.98;;;8.40;99.90;;;;;;4970716;28;20108;-70
2020/12/17 07:39:34;;;;;;;43.38;25.05;;;8.40;99.90;;;;;;4971294;28;20042;-70
2020/12/17 07:42:08;;;;;;;46.88;25.48;;;8.40;99.90;;;;;;4970380;28;20030;-70
2020/12/17 07:44:35;;;;;;;41.72;23.50;;;8.40;99.90;;;;;;4970822;28;20046;-70
2020/12/17 07:47:18;;;;;;;40.05;21.90;;;8.40;99.90;;;;;;4970916;28;20675;-70
2020/12/17 07:49:44;;;;;;;36.67;20.80;;;8.30;99.90;;;;;;4968555;28;20054;-70
2020/12/17 07:52:31;;;;;;;42.10;24.17;;;8.30;99.90;;;;;;4966816;28;20121;-70
2020/12/17 07:54:58;;;;;;;36.00;20.85;;;8.30;99.90;;;;;;4967289;28;20472;-70
2020/12/17 07:57:24;;;;;;;41.45;21.88;;;8.30;99.90;;;;;;4968538;28;20358;-70
2020/12/17 07:59:50;;;;;;;35.70;20.38;;;8.30;99.90;;;;;;4970765;28;20555;-70
2020/12/17 08:02:16;;;;;;;39.08;23.25;;;8.30;99.90;;;;;;4968974;28;20034;-71
2020/12/17 08:04:53;;;;;;;41.85;22.65;;;8.30;99.90;;;;;;4965823;28;20050;-70
2020/12/17 08:07:21;;;;;;;35.83;21.02;;;8.20;99.90;;;;;;4949289;28;20608;-70
2020/12/17 08:10:00;;;;;;;35.47;19.77;;;8.20;99.90;;;;;;4969134;28;20314;-70
2020/12/17 08:12:26;;;;;;;42.17;22.08;;;8.20;99.90;;;;;;4968140;28;20031;-70
2020/12/17 08:14:53;;;;;;;36.88;20.77;;;8.20;99.90;;;;;;4968461;28;20046;-70
2020/12/17 08:17:20;;;;;;;38.75;19.83;;;8.20;99.90;;;;;;4969355;28;20029;-70
2020/12/17 08:19:56;;;;;;;35.53;20.02;;;8.20;99.90;;;;;;4969187;28;20033;-70
2020/12/17 08:22:28;;;;;;;34.40;19.00;;;8.20;99.90;;;;;;4968287;28;20045;-70
2020/12/17 08:24:54;;;;;;;35.05;18.80;;;8.20;99.90;;;;;;4968184;28;20460;-70
2020/12/17 08:27:23;;;;;;;34.03;20.60;;;8.20;99.90;;;;;;4969689;28;20023;-70
2020/12/17 08:29:49;;;;;;;33.88;19.95;;;8.20;99.90;;;;;;4971309;28;20035;-70
2020/12/17 08:32:15;;;;;;;33.92;20.77;;;8.20;99.90;;;;;;4969671;28;20111;-70
2020/12/17 08:34:57;;;;;;;41.53;22.10;;;8.20;99.90;;;;;;4968334;28;20125;-70
2020/12/17 08:37:24;;;;;;;37.22;21.40;;;8.20;99.90;;;;;;4968841;28;20042;-70
2020/12/17 08:40:02;;;;;;;40.60;22.70;;;8.20;99.90;;;;;;4969146;28;20450;-70
2020/12/17 08:42:36;;;;;;;42.08;21.17;;;8.20;99.90;;;;;;4970050;28;20034;-71
2020/12/17 08:45:04;;;;;;;40.40;21.77;;;8.20;99.90;;;;;;4968061;28;20041;-70
2020/12/17 08:47:33;;;;;;;39.55;21.35;;;8.30;99.90;;;;;;4970362;28;20029;-70
2020/12/17 08:50:01;;;;;;;37.13;20.25;;;8.30;99.90;;;;;;4966295;28;20090;-70
2020/12/17 08:52:28;;;;;;;38.60;21.25;;;8.30;99.90;;;;;;4964261;28;20120;-70
2020/12/17 08:55:06;;;;;;;39.13;21.38;;;8.30;99.90;;;;;;4963512;28;20618;-70
2020/12/17 08:57:32;;;;;;;38.05;20.08;;;8.40;99.90;;;;;;4965341;28;20030;-70
2020/12/17 08:59:57;;;;;;;36.35;18.58;;;8.40;99.90;;;;;;4968052;28;20530;-70
2020/12/17 09:02:27;;;;;;;42.88;21.02;;;8.40;99.90;;;;;;4968669;28;20027;-70
2020/12/17 09:05:01;;;;;;;36.45;19.83;;;8.40;99.90;;;;;;4962566;28;20072;-70
2020/12/17 09:07:27;;;;;;;35.13;19.67;;;8.40;99.90;;;;;;4966641;28;20041;-71
2020/12/17 09:10:06;;;;;;;40.42;19.33;;;8.40;99.90;;;;;;4967351;28;20054;-70
2020/12/17 09:12:32;;;;;;;40.97;20.80;;;8.40;99.90;;;;;;4969663;28;20402;-70
2020/12/17 09:15:05;;;;;;;34.83;17.63;;;8.40;99.90;;;;;;4963220;28;20038;-71
2020/12/17 09:17:31;;;;;;;31.35;17.17;;;8.40;99.90;;;;;;5001174;28;20093;-71
2020/12/17 09:19:56;;;;;;;33.38;18.30;;;8.40;99.90;;;;;;4969049;28;20073;-70
2020/12/17 09:22:30;;;;;;;30.60;17.10;;;8.40;99.90;;;;;;4964849;28;20581;-70
2020/12/17 09:24:57;;;;;;;25.52;13.00;;;8.40;99.90;;;;;;4967839;28;20038;-70
2020/12/17 09:27:33;;;;;;;25.40;11.10;;;8.50;99.90;;;;;;4966004;28;20074;-70
2020/12/17 09:30:10;;;;;;;16.35;8.55;;;8.40;99.90;;;;;;4968093;28;20402;-70
2020/12/17 09:32:39;;;;;;;16.52;8.02;;;8.50;99.90;;;;;;4969234;28;20198;-70
2020/12/17 09:35:13;;;;;;;17.05;7.60;;;8.50;99.90;;;;;;4965718;28;20081;-70
2020/12/17 09:37:40;;;;;;;18.10;6.97;;;8.50;99.90;;;;;;4966961;28;20444;-70
2020/12/17 09:40:10;;;;;;;15.80;5.63;;;8.60;99.90;;;;;;4968719;28;20034;-70
2020/12/17 09:42:36;;;;;;;14.38;4.72;;;8.60;99.90;;;;;;4967916;28;20520;-70
2020/12/17 09:45:33;;;;;;;16.80;4.63;;;8.60;99.90;;;;;;4962616;28;20578;-70
2020/12/17 09:47:58;;;;;;;12.02;3.20;;;8.70;99.90;;;;;;4966483;28;20574;-70
2020/12/17 09:50:24;;;;;;;16.63;3.63;;;8.60;99.90;;;;;;4968631;28;20053;-69
2020/12/17 09:52:50;;;;;;;15.77;3.25;;;8.60;99.90;;;;;;4968985;28;20053;-70
2020/12/17 09:55:16;;;;;;;13.98;2.67;;;8.70;99.90;;;;;;4963413;28;20038;-70
2020/12/17 09:57:44;;;;;;;14.57;3.08;;;8.70;99.90;;;;;;4967664;28;20533;-70
2020/12/17 10:00:12;;;;;;;11.75;2.72;;;8.80;99.90;;;;;;4967359;28;20059;-70
2020/12/17 10:02:39;;;;;;;15.23;3.50;;;8.70;99.90;;;;;;4949565;28;20038;-70
2020/12/17 10:05:07;;;;;;;10.60;2.15;;;8.70;99.90;;;;;;4965803;28;20633;-70
2020/12/17 10:07:33;;;;;;;11.05;2.58;;;8.70;99.90;;;;;;4965667;28;20644;-70
2020/12/17 10:09:59;;;;;;;12.32;2.53;;;8.70;99.90;;;;;;4968217;28;20070;-69
2020/12/17 10:12:26;;;;;;;14.48;2.33;;;8.70;99.90;;;;;;4965776;28;20436;-69
2020/12/17 10:14:51;;;;;;;15.05;2.78;;;8.70;99.90;;;;;;4964444;28;20395;-70
2020/12/17 10:17:17;;;;;;;15.63;3.08;;;8.70;99.90;;;;;;4967073;28;20057;-69
2020/12/17 10:19:43;;;;;;;8.15;1.92;;;8.70;99.90;;;;;;4962184;28;20050;-70
2020/12/17 10:22:09;;;;;;;15.85;2.40;;;8.70;99.90;;;;;;4969164;28;20081;-70
2020/12/17 10:24:35;;;;;;;10.02;1.73;;;8.70;99.90;;;;;;4965466;28;20545;-70
2020/12/17 10:27:02;;;;;;;8.48;1.80;;;8.70;99.90;;;;;;4966623;28;20049;-70
2020/12/17 10:29:28;;;;;;;8.80;1.85;;;8.80;99.90;;;;;;4966903;28;20038;-70
2020/12/17 10:31:57;;;;;;;6.03;1.80;;;8.70;99.90;;;;;;4969126;28;20030;-69
2020/12/17 10:34:24;;;;;;;19.10;2.67;;;8.70;99.90;;;;;;4966498;28;20031;-69
2020/12/17 10:36:50;;;;;;;7.47;1.80;;;8.70;99.90;;;;;;4965661;28;20034;-70
2020/12/17 10:39:16;;;;;;;11.05;1.63;;;8.70;99.90;;;;;;4966026;28;20046;-70
2020/12/17 10:41:42;;;;;;;10.18;2.05;;;8.60;99.90;;;;;;4967104;28;20030;-70
2020/12/17 10:44:09;;;;;;;13.40;2.40;;;8.70;99.90;;;;;;4966352;28;20034;-70
2020/12/17 10:46:36;;;;;;;12.57;2.20;;;8.70;99.90;;;;;;4968204;28;20069;-70
2020/12/17 10:49:03;;;;;;;10.57;1.65;;;8.70;99.90;;;;;;4965243;28;20035;-70
2020/12/17 10:51:29;;;;;;;15.63;3.30;;;8.70;99.90;;;;;;4967274;28;20044;-70
2020/12/17 10:53:55;;;;;;;12.80;2.58;;;8.60;99.90;;;;;;4967962;28;20285;-69
2020/12/17 10:56:21;;;;;;;17.73;2.80;;;8.60;99.90;;;;;;4968608;28;20380;-70
2020/12/17 10:58:49;;;;;;;12.10;3.30;;;8.60;99.90;;;;;;4969024;28;20023;-69
2020/12/17 11:01:22;;;;;;;11.48;2.60;;;8.60;99.90;;;;;;4971080;28;20052;-70
2020/12/17 11:03:48;;;;;;;6.57;1.60;;;8.50;99.90;;;;;;4968577;28;20509;-69
2020/12/17 11:06:16;;;;;;;14.52;2.38;;;8.60;99.90;;;;;;4969086;28;20035;-70
2020/12/17 11:08:42;;;;;;;10.07;2.28;;;8.50;99.90;;;;;;4969297;28;20045;-69
2020/12/17 11:11:08;;;;;;;13.82;3.17;;;8.50;99.90;;;;;;4971445;28;20160;-69
2020/12/17 11:13:33;;;;;;;17.65;2.35;;;8.60;99.90;;;;;;4967094;28;20823;-69
2020/12/17 11:15:59;;;;;;;8.73;1.75;;;8.60;99.90;;;;;;4971619;28;20053;-70
2020/12/17 11:18:25;;;;;;;6.95;2.08;;;8.50;99.90;;;;;;4968433;28;20022;-69
2020/12/17 11:20:51;;;;;;;9.50;1.75;;;8.60;99.90;;;;;;4969593;28;20030;-70
2020/12/17 11:23:17;;;;;;;16.02;2.05;;;8.60;99.90;;;;;;4964421;28;20031;-70
2020/12/17 11:25:42;;;;;;;13.32;2.65;;;8.60;99.90;;;;;;4969458;28;20077;-69
2020/12/17 11:28:08;;;;;;;12.18;2.45;;;8.50;99.90;;;;;;4969316;28;20421;-69
2020/12/17 11:30:36;;;;;;;8.27;2.08;;;8.50;99.90;;;;;;4966224;28;20045;-70
2020/12/17 11:33:03;;;;;;;14.05;2.97;;;8.60;99.90;;;;;;4967489;28;20030;-69
2020/12/17 11:35:29;;;;;;;10.00;2.10;;;8.50;99.90;;;;;;4970408;28;20414;-70
2020/12/17 11:37:55;;;;;;;11.40;3.10;;;8.60;99.90;;;;;;4968849;28;20055;-70
2020/12/17 11:40:22;;;;;;;9.05;2.05;;;8.60;99.90;;;;;;4970893;28;20540;-69
2020/12/17 11:42:49;;;;;;;10.10;2.28;;;8.60;99.90;;;;;;4970132;28;20517;-70
2020/12/17 11:45:15;;;;;;;9.90;2.63;;;8.60;99.90;;;;;;4964721;28;20042;-70
2020/12/17 11:47:42;;;;;;;12.35;2.83;;;8.60;99.90;;;;;;4967104;28;20038;-69
2020/12/17 11:50:09;;;;;;;10.38;2.58;;;8.70;99.90;;;;;;4967745;28;20117;-70
2020/12/17 11:52:36;;;;;;;8.90;2.60;;;8.60;99.90;;;;;;4962161;28;20031;-70
2020/12/17 11:55:04;;;;;;;11.63;2.25;;;8.70;99.90;;;;;;4981188;28;20410;-69
2020/12/17 11:57:30;;;;;;;12.27;2.97;;;8.70;99.90;;;;;;4965868;28;20031;-70
2020/12/17 11:59:55;;;;;;;15.30;2.88;;;8.70;99.90;;;;;;4963408;28;20030;-70
2020/12/17 12:02:21;;;;;;;15.40;3.20;;;8.70;99.90;;;;;;4964475;28;20081;-70
2020/12/17 12:04:47;;;;;;;12.93;2.95;;;8.70;99.90;;;;;;4964032;28;20402;-69
2020/12/17 12:07:13;;;;;;;14.73;3.20;;;8.70;99.90;;;;;;4968172;28;20054;-69
2020/12/17 12:09:39;;;;;;;7.82;2.30;;;8.70;99.90;;;;;;4968315;28;20800;-70
2020/12/17 12:12:04;;;;;;;12.95;2.55;;;8.70;99.90;;;;;;4968480;28;20505;-70
2020/12/17 12:14:30;;;;;;;9.05;2.55;;;8.70;99.90;;;;;;4968054;28;20102;-70
2020/12/17 12:16:56;;;;;;;14.98;3.28;;;8.70;99.90;;;;;;4968310;28;20034;-70
2020/12/17 12:19:22;;;;;;;13.80;2.55;;;8.80;99.90;;;;;;4964935;28;20381;-70
2020/12/17 12:21:52;;;;;;;22.65;3.38;;;8.80;99.90;;;;;;4969549;28;20121;-70
2020/12/17 12:24:18;;;;;;;13.85;2.47;;;8.80;99.90;;;;;;4965686;28;20065;-70
2020/12/17 12:26:44;;;;;;;22.17;3.28;;;8.80;99.90;;;;;;4968741;28;20066;-70
2020/12/17 12:29:10;;;;;;;19.25;3.67;;;8.80;99.90;;;;;;4968020;28;20066;-70
2020/12/17 12:31:36;;;;;;;15.10;2.60;;;8.80;99.90;;;;;;4968806;28;20061;-70
2020/12/17 12:34:03;;;;;;;17.80;3.22;;;8.90;99.90;;;;;;4967766;28;20049;-70
2020/12/17 12:36:30;;;;;;;27.55;3.65;;;8.90;99.90;;;;;;4970017;28;20043;-70
2020/12/17 12:38:56;;;;;;;14.43;2.90;;;8.90;99.90;;;;;;4968828;28;20089;-70
2020/12/17 12:41:21;;;;;;;17.35;3.15;;;9.00;99.90;;;;;;4967306;28;20126;-70